Main page


Airports :

Brighton, England

Brighton City Airport (Shoreham Airport)

latitude: 50-50N, longitude: 000-17W, elevation: 2 m

Current weather observation

The report was made 27 minutes ago, at 17:20 UTC
Wind 9 kt from the North
Temperature 8°C
Humidity 49%
Pressure 1030 hPa
Visibility 10 km or more
Few clouds at a height of 4200 ft

METAR: EGKA 201720Z 01009KT 9999 FEW042 08/M02 Q1030

Time: 17:47 (17:47 UTC)


The report was made 45 minutes ago, at 17:02 UTC
Forecast valid from 20 at 18 UTC to 20 at 20 UTC
Wind 10 kt from the North/Northeast
Visibility 10 km or more
Scattered clouds at a height of 3500 ft

TAF: EGKA 201702Z 2018/2020 02010KT 9999 SCT035

Weather observations and forecasts of more than 4000 airports (METAR and TAF reports).

The available stations are represented by yellow and red dots on the map.

Hover mouse over dot to see the name of the station.

Then click to see weather observations and forecasts.

To change the map : click on the green buttons with a black cross to zoom in, on the green button with a dash to zoom out, or on the green arrows for adjacent maps.